createdAt,value
2023-03-08T00:00:00.880Z,8.95
2023-03-08T00:02:28.208Z,9.40
2023-03-08T00:04:55.967Z,9.57
2023-03-08T00:07:23.681Z,10.68
2023-03-08T00:09:51.054Z,11.77
2023-03-08T00:12:20.198Z,10.48
2023-03-08T00:14:47.616Z,11.45
2023-03-08T00:17:15.014Z,11.38
2023-03-08T00:19:42.617Z,11.45
2023-03-08T00:22:10.899Z,11.35
2023-03-08T00:24:38.792Z,11.77
2023-03-08T00:27:06.154Z,12.63
2023-03-08T00:29:33.428Z,11.32
2023-03-08T00:32:00.633Z,12.23
2023-03-08T00:34:27.837Z,12.38
2023-03-08T00:36:55.085Z,11.10
2023-03-08T00:39:22.422Z,11.40
2023-03-08T00:41:49.928Z,12.10
2023-03-08T00:44:17.194Z,12.57
2023-03-08T00:46:44.576Z,12.43
2023-03-08T00:49:14.366Z,11.48
2023-03-08T00:51:41.825Z,14.40
2023-03-08T00:54:10.568Z,11.65
2023-03-08T00:56:38.645Z,12.80
2023-03-08T00:59:06.369Z,12.25
2023-03-08T01:01:34.721Z,12.95
2023-03-08T01:04:04.023Z,12.73
2023-03-08T01:06:31.335Z,13.05
2023-03-08T01:08:58.594Z,12.98
2023-03-08T01:11:27.588Z,13.80
2023-03-08T01:13:55.318Z,13.70
2023-03-08T01:16:30.885Z,12.93
2023-03-08T01:19:00.355Z,14.27
2023-03-08T01:21:29.817Z,14.75
2023-03-08T01:23:57.901Z,13.48
2023-03-08T01:26:27.139Z,14.25
2023-03-08T01:28:58.058Z,14.02
2023-03-08T01:31:30.210Z,13.85
2023-03-08T01:33:59.579Z,14.52
2023-03-08T01:36:28.069Z,13.93
2023-03-08T01:38:55.867Z,14.90
2023-03-08T01:41:26.207Z,15.85
2023-03-08T01:43:54.352Z,16.10
2023-03-08T01:46:22.675Z,15.18
2023-03-08T01:49:10.309Z,16.55
2023-03-08T01:51:46.489Z,14.35
2023-03-08T01:54:26.338Z,14.98
2023-03-08T01:56:59.661Z,15.95
2023-03-08T01:59:27.400Z,13.38
2023-03-08T02:01:54.827Z,14.82
2023-03-08T02:04:22.832Z,14.90
2023-03-08T02:06:50.263Z,14.95
2023-03-08T02:09:22.222Z,14.55
2023-03-08T02:11:50.421Z,15.32
2023-03-08T02:14:17.791Z,14.70
2023-03-08T02:16:49.251Z,15.52
2023-03-08T02:19:54.761Z,15.10
2023-03-08T02:22:22.311Z,13.73
2023-03-08T02:24:49.574Z,13.32
2023-03-08T02:27:26.434Z,14.32
2023-03-08T02:29:54.392Z,13.63
2023-03-08T02:32:23.550Z,12.32
2023-03-08T02:34:50.878Z,13.40
2023-03-08T02:37:18.179Z,16.13
2023-03-08T02:39:48.332Z,13.63
2023-03-08T02:42:15.555Z,14.05
2023-03-08T02:44:43.539Z,14.77
2023-03-08T02:47:10.876Z,16.02
2023-03-08T02:49:38.388Z,15.23
2023-03-08T02:52:05.826Z,15.48
2023-03-08T02:54:33.033Z,15.43
2023-03-08T02:57:01.551Z,14.02
2023-03-08T02:59:30.951Z,13.20
2023-03-08T03:01:59.769Z,13.75
2023-03-08T03:04:32.608Z,16.85
2023-03-08T03:07:01.090Z,15.65
2023-03-08T03:09:30.398Z,15.73
2023-03-08T03:11:58.281Z,16.33
2023-03-08T03:14:28.602Z,14.13
2023-03-08T03:16:56.707Z,16.15
2023-03-08T03:19:23.985Z,15.77
2023-03-08T03:21:51.301Z,13.02
2023-03-08T03:24:18.572Z,17.50
2023-03-08T03:26:53.767Z,14.85
2023-03-08T03:29:22.793Z,15.02
2023-03-08T03:31:55.573Z,16.60
2023-03-08T03:34:23.229Z,15.07
2023-03-08T03:36:51.040Z,14.75
2023-03-08T03:39:18.585Z,15.20
2023-03-08T03:41:48.449Z,14.90
2023-03-08T03:44:16.090Z,15.77
2023-03-08T03:46:45.900Z,14.65
2023-03-08T03:49:16.489Z,12.82
2023-03-08T03:51:45.699Z,14.60
2023-03-08T03:54:18.835Z,14.52
2023-03-08T03:56:47.966Z,12.20
2023-03-08T03:59:15.343Z,13.63
2023-03-08T04:01:42.949Z,13.85
2023-03-08T04:04:33.470Z,13.15
2023-03-08T04:07:01.169Z,14.10
2023-03-08T04:09:33.332Z,13.25
2023-03-08T04:12:08.018Z,12.98
2023-03-08T04:14:36.851Z,11.10
2023-03-08T04:17:04.713Z,11.98
2023-03-08T04:19:39.193Z,11.80
2023-03-08T04:22:07.917Z,11.10
2023-03-08T04:24:42.977Z,9.93
2023-03-08T04:27:15.660Z,10.50
2023-03-08T04:29:43.309Z,9.85
2023-03-08T04:32:10.767Z,9.18
2023-03-08T04:34:43.830Z,7.85
2023-03-08T04:37:14.387Z,7.32
2023-03-08T04:39:44.680Z,7.80
2023-03-08T04:42:11.982Z,7.45
2023-03-08T04:44:39.422Z,8.30
2023-03-08T04:47:07.334Z,7.53
2023-03-08T04:49:44.035Z,6.90
2023-03-08T04:52:11.320Z,6.70
2023-03-08T04:54:39.767Z,6.60
2023-03-08T04:57:25.102Z,5.40
2023-03-08T04:59:55.549Z,8.43
2023-03-08T05:02:23.959Z,6.65
2023-03-08T05:04:51.502Z,6.47
2023-03-08T05:07:19.087Z,6.80
2023-03-08T05:09:47.935Z,6.82
2023-03-08T05:12:15.319Z,5.55
2023-03-08T05:14:56.013Z,5.53
2023-03-08T05:17:25.698Z,4.88
2023-03-08T05:19:53.407Z,5.38
2023-03-08T05:22:25.828Z,5.75
2023-03-08T05:24:56.766Z,5.57
2023-03-08T05:27:24.684Z,4.90
2023-03-08T05:29:53.451Z,5.22
2023-03-08T05:32:20.921Z,5.63
2023-03-08T05:34:48.746Z,6.82
2023-03-08T05:37:27.542Z,8.13
2023-03-08T05:39:57.267Z,5.32
2023-03-08T05:42:25.382Z,5.97
2023-03-08T05:44:52.938Z,4.78
2023-03-08T05:47:26.454Z,4.28
2023-03-08T05:49:53.804Z,4.40
2023-03-08T05:52:22.516Z,4.43
2023-03-08T05:54:51.286Z,4.47
2023-03-08T05:57:20.433Z,4.68
2023-03-08T05:59:49.539Z,3.95
2023-03-08T06:02:20.757Z,3.50
2023-03-08T06:04:50.585Z,3.00
2023-03-08T06:07:21.690Z,2.97
2023-03-08T06:09:55.886Z,3.00
2023-03-08T06:12:24.540Z,3.10
2023-03-08T06:14:55.423Z,2.80
2023-03-08T06:17:25.869Z,2.25
2023-03-08T06:19:55.185Z,1.80
2023-03-08T06:22:23.262Z,2.72
2023-03-08T06:24:51.083Z,2.00
2023-03-08T06:27:26.544Z,2.40
2023-03-08T06:29:55.882Z,1.83
2023-03-08T06:32:24.141Z,1.67
2023-03-08T06:34:52.404Z,2.05
2023-03-08T06:37:20.228Z,2.95
2023-03-08T06:39:47.843Z,2.40
2023-03-08T06:42:15.141Z,2.20
2023-03-08T06:44:42.584Z,2.72
2023-03-08T06:47:10.051Z,1.90
2023-03-08T06:49:37.368Z,2.38
2023-03-08T06:52:04.955Z,2.30
2023-03-08T06:54:32.847Z,1.88
2023-03-08T06:57:05.138Z,2.20
2023-03-08T06:59:32.968Z,1.80
2023-03-08T07:02:00.329Z,1.60
2023-03-08T07:04:27.783Z,1.92
2023-03-08T07:06:55.050Z,1.75
2023-03-08T07:09:22.386Z,1.30
2023-03-08T07:11:49.647Z,1.35
2023-03-08T07:14:16.943Z,2.28
2023-03-08T07:16:44.211Z,1.90
2023-03-08T07:19:11.511Z,1.30
2023-03-08T07:21:38.710Z,1.23
2023-03-08T07:24:06.317Z,1.45
2023-03-08T07:26:33.602Z,1.50
2023-03-08T07:29:00.903Z,1.00
2023-03-08T07:31:29.505Z,1.20
2023-03-08T07:33:56.976Z,1.35
2023-03-08T07:36:24.269Z,0.93
2023-03-08T07:38:51.658Z,1.15
2023-03-08T07:41:18.881Z,1.30
2023-03-08T07:43:46.188Z,1.40
2023-03-08T07:46:17.461Z,1.65
2023-03-08T07:48:44.831Z,1.10
2023-03-08T07:51:12.529Z,1.00
2023-03-08T07:53:39.920Z,1.30
2023-03-08T07:56:07.673Z,0.90
2023-03-08T07:58:35.032Z,1.10
2023-03-08T08:01:02.288Z,1.05
2023-03-08T08:03:30.348Z,0.80
2023-03-08T08:06:01.524Z,0.85
2023-03-08T08:08:28.871Z,1.00
2023-03-08T08:10:56.333Z,0.90
2023-03-08T08:13:23.577Z,0.98
2023-03-08T08:16:01.892Z,0.85
2023-03-08T08:18:29.607Z,1.00
2023-03-08T08:21:05.525Z,0.70
2023-03-08T08:23:33.319Z,1.00
2023-03-08T08:26:01.219Z,1.00
2023-03-08T08:28:29.085Z,0.90
2023-03-08T08:31:01.625Z,0.90
2023-03-08T08:33:30.040Z,1.00
2023-03-08T08:35:57.982Z,1.25
2023-03-08T08:38:26.087Z,1.65
2023-03-08T08:40:53.374Z,1.20
2023-03-08T08:43:20.585Z,1.10
2023-03-08T08:45:53.331Z,1.02
2023-03-08T08:48:20.643Z,1.10
2023-03-08T08:50:48.021Z,1.17
2023-03-08T08:53:15.567Z,0.90
2023-03-08T08:55:45.191Z,1.33
2023-03-08T08:58:13.156Z,3.08
2023-03-08T09:00:40.609Z,2.83
2023-03-08T09:03:08.222Z,1.65
2023-03-08T09:05:40.166Z,1.63
2023-03-08T09:08:07.974Z,1.50
2023-03-08T09:10:38.276Z,1.25
2023-03-08T09:13:06.264Z,1.85
2023-03-08T09:15:36.751Z,1.25
2023-03-08T09:18:04.480Z,1.40
2023-03-08T09:20:31.852Z,1.17
2023-03-08T09:22:59.134Z,1.10
2023-03-08T09:25:26.573Z,1.60
2023-03-08T09:27:53.838Z,1.13
2023-03-08T09:30:21.396Z,1.50
2023-03-08T09:32:48.704Z,1.17
2023-03-08T09:35:16.099Z,1.00
2023-03-08T09:37:43.613Z,1.55
2023-03-08T09:40:24.910Z,1.58
2023-03-08T09:42:53.710Z,1.10
2023-03-08T09:45:28.998Z,1.20
2023-03-08T09:48:22.091Z,1.50
2023-03-08T09:50:55.175Z,1.60
2023-03-08T09:53:38.501Z,1.08
2023-03-08T09:56:41.302Z,1.23
2023-03-08T09:59:14.830Z,1.00
2023-03-08T10:02:11.452Z,0.93
2023-03-08T10:05:13.238Z,1.20
2023-03-08T10:08:11.925Z,1.00
2023-03-08T10:11:01.907Z,1.05
2023-03-08T10:13:30.987Z,0.73
2023-03-08T10:16:11.458Z,1.23
2023-03-08T10:18:55.939Z,1.10
2023-03-08T10:21:25.523Z,1.38
2023-03-08T10:24:07.845Z,1.38
2023-03-08T10:26:35.108Z,1.00
2023-03-08T10:29:02.315Z,0.85
2023-03-08T10:31:33.718Z,1.15
2023-03-08T10:34:13.953Z,1.42
2023-03-08T10:36:53.710Z,0.90
2023-03-08T10:39:22.193Z,1.50
2023-03-08T10:42:14.322Z,1.45
2023-03-08T10:44:47.418Z,1.33
2023-03-08T10:47:34.793Z,1.50
2023-03-08T10:50:21.016Z,1.30
2023-03-08T10:52:51.098Z,1.08
2023-03-08T10:55:29.431Z,1.05
2023-03-08T10:58:00.934Z,1.33
2023-03-08T11:00:44.368Z,1.50
2023-03-08T11:03:13.714Z,1.02
2023-03-08T11:06:01.534Z,1.20
2023-03-08T11:08:34.955Z,1.10
2023-03-08T11:11:03.996Z,0.82
2023-03-08T11:13:34.409Z,1.02
2023-03-08T11:16:29.085Z,0.90
2023-03-08T11:19:07.859Z,2.50
2023-03-08T11:21:51.122Z,0.98
2023-03-08T11:24:21.961Z,0.95
2023-03-08T11:27:33.859Z,0.93
2023-03-08T11:30:29.289Z,1.45
2023-03-08T11:33:25.852Z,1.13
2023-03-08T11:36:05.275Z,1.33
2023-03-08T11:38:33.816Z,1.65
2023-03-08T11:41:15.341Z,1.70
2023-03-08T11:44:04.343Z,1.20
2023-03-08T11:46:59.394Z,0.80
2023-03-08T11:49:26.545Z,1.05
2023-03-08T11:52:31.541Z,0.80
2023-03-08T11:55:10.983Z,0.80
2023-03-08T11:57:45.614Z,0.80
2023-03-08T12:00:28.557Z,0.80
2023-03-08T12:03:00.139Z,0.70
2023-03-08T12:05:30.814Z,1.00
2023-03-08T12:08:13.606Z,0.70
2023-03-08T12:11:05.254Z,1.73
2023-03-08T12:13:36.570Z,0.93
2023-03-08T12:16:22.905Z,0.75
2023-03-08T12:19:02.090Z,0.88
2023-03-08T12:22:17.859Z,0.80
2023-03-08T12:27:47.014Z,1.02
2023-03-08T12:30:18.103Z,0.93
2023-03-08T12:32:47.539Z,1.20
2023-03-08T12:35:20.726Z,1.50
2023-03-08T12:38:03.375Z,1.08
2023-03-08T12:40:41.150Z,0.90
2023-03-08T12:43:13.105Z,0.80
2023-03-08T12:45:45.459Z,0.65
2023-03-08T12:48:30.740Z,0.75
2023-03-08T12:51:04.294Z,0.95
2023-03-08T12:53:36.838Z,1.00
2023-03-08T12:56:06.315Z,0.82
2023-03-08T12:58:36.952Z,0.85
2023-03-08T13:01:08.097Z,1.10
2023-03-08T13:03:41.620Z,0.73
2023-03-08T13:06:18.507Z,1.00
2023-03-08T13:08:53.796Z,1.13
2023-03-08T13:11:22.242Z,0.88
2023-03-08T13:14:00.922Z,0.75
2023-03-08T13:16:37.782Z,1.13
2023-03-08T13:19:14.815Z,1.65
2023-03-08T13:21:56.202Z,1.40
2023-03-08T13:24:37.198Z,2.30
2023-03-08T13:27:07.205Z,1.25
2023-03-08T13:29:35.123Z,2.13
2023-03-08T13:32:14.246Z,0.98
2023-03-08T13:34:41.989Z,1.20
2023-03-08T13:37:21.762Z,1.52
2023-03-08T13:40:19.380Z,1.52
2023-03-08T13:43:02.861Z,0.82
2023-03-08T13:45:30.185Z,0.70
2023-03-08T13:48:00.689Z,0.75
2023-03-08T13:50:30.919Z,0.90
2023-03-08T13:53:00.642Z,0.98
2023-03-08T13:55:35.876Z,0.70
2023-03-08T13:58:03.564Z,0.93
2023-03-08T14:00:33.626Z,0.68
2023-03-08T14:03:03.679Z,0.85
2023-03-08T14:05:33.489Z,1.00
2023-03-08T14:08:08.810Z,0.60
2023-03-08T14:10:46.412Z,0.68
2023-03-08T14:13:20.609Z,0.65
2023-03-08T14:15:59.632Z,0.75
2023-03-08T14:18:45.735Z,0.90
2023-03-08T14:21:15.902Z,0.75
2023-03-08T14:23:47.850Z,0.93
2023-03-08T14:26:25.878Z,0.70
2023-03-08T14:29:15.051Z,0.80
2023-03-08T14:31:57.736Z,0.88
2023-03-08T14:34:36.114Z,1.00
2023-03-08T14:37:07.963Z,1.58
2023-03-08T14:39:37.683Z,0.98
2023-03-08T14:42:33.952Z,3.17
2023-03-08T14:45:05.256Z,2.15
2023-03-08T14:47:34.343Z,1.67
2023-03-08T14:50:07.849Z,1.50
2023-03-08T14:52:37.268Z,1.50
2023-03-08T14:55:22.519Z,1.00
2023-03-08T14:57:57.708Z,1.63
2023-03-08T15:00:27.808Z,1.38
2023-03-08T15:02:56.498Z,1.92
2023-03-08T15:05:29.251Z,1.23
2023-03-08T15:07:59.810Z,1.15
2023-03-08T15:10:37.405Z,1.05
2023-03-08T15:13:08.289Z,1.08
2023-03-08T15:15:35.503Z,0.90
2023-03-08T15:18:02.698Z,1.52
2023-03-08T15:20:30.217Z,0.90
2023-03-08T15:23:00.925Z,1.10
2023-03-08T15:25:37.309Z,0.70
2023-03-08T15:28:06.025Z,1.20
2023-03-08T15:30:33.319Z,0.93
2023-03-08T15:33:02.197Z,0.70
2023-03-08T15:35:30.396Z,1.08
2023-03-08T15:37:57.722Z,0.80
2023-03-08T15:40:28.534Z,0.80
2023-03-08T15:42:56.104Z,0.82
2023-03-08T15:45:23.463Z,1.02
2023-03-08T15:48:01.903Z,0.80
2023-03-08T15:50:30.547Z,3.45
2023-03-08T15:52:58.492Z,1.10
2023-03-08T15:55:28.323Z,1.10
2023-03-08T15:57:55.746Z,1.13
2023-03-08T16:00:23.822Z,1.30
2023-03-08T16:02:53.407Z,1.38
2023-03-08T16:05:23.496Z,1.20
2023-03-08T16:07:59.541Z,1.30
2023-03-08T16:10:28.785Z,1.35
2023-03-08T16:12:56.192Z,1.10
2023-03-08T16:15:23.833Z,1.00
2023-03-08T16:17:51.099Z,1.08
2023-03-08T16:20:18.916Z,1.85
2023-03-08T16:22:46.331Z,1.02
2023-03-08T16:25:14.685Z,1.10
2023-03-08T16:27:41.895Z,0.90
2023-03-08T16:30:11.730Z,1.95
2023-03-08T16:32:39.009Z,1.90
2023-03-08T16:35:06.618Z,1.95
2023-03-08T16:37:33.944Z,1.23
2023-03-08T16:40:02.329Z,1.00
2023-03-08T16:42:30.976Z,1.13
2023-03-08T16:44:58.235Z,1.98
2023-03-08T16:47:26.787Z,2.42
2023-03-08T16:49:54.225Z,1.98
2023-03-08T16:52:21.573Z,2.00
2023-03-08T16:54:48.856Z,1.65
2023-03-08T16:57:19.366Z,1.58
2023-03-08T16:59:47.889Z,1.77
2023-03-08T17:02:20.549Z,1.48
2023-03-08T17:04:49.369Z,1.40
2023-03-08T17:07:17.483Z,2.00
2023-03-08T17:09:46.425Z,1.83
2023-03-08T17:12:13.918Z,1.27
2023-03-08T17:14:41.324Z,2.28
2023-03-08T17:17:10.470Z,1.70
2023-03-08T17:19:40.776Z,1.70
2023-03-08T17:22:09.134Z,2.15
2023-03-08T17:24:36.621Z,1.73
2023-03-08T17:27:04.417Z,2.88
2023-03-08T17:29:31.650Z,2.25
2023-03-08T17:31:58.967Z,2.85
2023-03-08T17:34:26.297Z,1.85
2023-03-08T17:36:53.654Z,2.08
2023-03-08T17:39:20.933Z,3.15
2023-03-08T17:41:48.274Z,3.15
2023-03-08T17:44:15.759Z,2.20
2023-03-08T17:46:43.116Z,2.90
2023-03-08T17:49:12.159Z,4.30
2023-03-08T17:51:39.594Z,3.55
2023-03-08T17:54:07.747Z,3.00
2023-03-08T17:56:36.632Z,2.60
2023-03-08T17:59:04.042Z,3.45
2023-03-08T18:01:32.309Z,2.90
2023-03-08T18:04:00.512Z,3.08
2023-03-08T18:06:28.995Z,3.63
2023-03-08T18:08:57.843Z,5.68
2023-03-08T18:11:25.641Z,3.75
2023-03-08T18:13:53.221Z,2.80
2023-03-08T18:16:22.516Z,4.35
2023-03-08T18:18:50.957Z,3.17
2023-03-08T18:21:19.617Z,3.45
2023-03-08T18:23:47.050Z,5.10
2023-03-08T18:26:16.521Z,3.60
2023-03-08T18:28:43.818Z,3.90
2023-03-08T18:31:14.832Z,4.55
2023-03-08T18:33:42.731Z,4.47
2023-03-08T18:36:10.122Z,4.47
2023-03-08T18:38:37.419Z,3.40
2023-03-08T18:41:15.956Z,4.43
2023-03-08T18:43:43.789Z,5.75
2023-03-08T18:46:13.314Z,4.78
2023-03-08T18:48:41.723Z,3.95
2023-03-08T18:51:09.864Z,5.63
2023-03-08T18:53:37.910Z,4.05
2023-03-08T18:56:06.186Z,4.80
2023-03-08T18:58:34.647Z,4.82
2023-03-08T19:01:03.415Z,5.70
2023-03-08T19:03:30.983Z,5.57
2023-03-08T19:06:02.385Z,4.78
2023-03-08T19:08:29.632Z,3.75
2023-03-08T19:10:57.406Z,4.03
2023-03-08T19:13:24.821Z,4.43
2023-03-08T19:15:52.339Z,4.32
2023-03-08T19:18:19.688Z,4.88
2023-03-08T19:20:47.035Z,5.13
2023-03-08T19:23:14.290Z,4.40
2023-03-08T19:25:59.864Z,6.78
2023-03-08T19:28:27.718Z,6.90
2023-03-08T19:30:55.008Z,4.90
2023-03-08T19:33:30.928Z,4.75
2023-03-08T19:35:59.596Z,6.07
2023-03-08T19:38:26.941Z,4.25
2023-03-08T19:40:54.218Z,5.15
2023-03-08T19:43:21.470Z,4.80
2023-03-08T19:45:50.254Z,4.43
2023-03-08T19:48:17.751Z,4.35
2023-03-08T19:50:46.451Z,6.85
2023-03-08T19:53:13.823Z,5.07
2023-03-08T19:55:55.403Z,4.53
2023-03-08T19:58:23.573Z,5.22
2023-03-08T20:01:07.201Z,5.15
2023-03-08T20:03:35.636Z,3.13
2023-03-08T20:06:03.753Z,5.97
2023-03-08T20:08:31.092Z,4.30
2023-03-08T20:10:58.376Z,4.85
2023-03-08T20:13:25.671Z,4.70
2023-03-08T20:15:53.000Z,4.03
2023-03-08T20:18:20.384Z,4.45
2023-03-08T20:20:48.167Z,3.97
2023-03-08T20:23:15.432Z,5.88
2023-03-08T20:25:46.183Z,4.20
2023-03-08T20:28:13.912Z,5.28
2023-03-08T20:30:41.236Z,4.45
2023-03-08T20:33:10.815Z,4.40
2023-03-08T20:35:40.127Z,4.15
2023-03-08T20:38:09.658Z,4.63
2023-03-08T20:40:39.609Z,4.07
2023-03-08T20:43:11.184Z,3.80
2023-03-08T20:45:40.363Z,3.97
2023-03-08T20:48:07.865Z,5.03
2023-03-08T20:50:35.119Z,4.32
2023-03-08T20:53:02.425Z,3.75
2023-03-08T20:55:29.730Z,4.38
2023-03-08T20:57:57.142Z,4.32
2023-03-08T21:00:25.530Z,6.10
2023-03-08T21:02:52.970Z,4.43
2023-03-08T21:05:20.348Z,3.75
2023-03-08T21:07:47.562Z,4.25
2023-03-08T21:10:14.845Z,3.80
2023-03-08T21:12:42.259Z,4.28
2023-03-08T21:15:10.314Z,4.15
2023-03-08T21:17:40.923Z,4.00
2023-03-08T21:20:09.724Z,5.22
2023-03-08T21:22:38.409Z,4.13
2023-03-08T21:25:06.724Z,4.97
2023-03-08T21:27:34.025Z,4.28
2023-03-08T21:30:02.172Z,5.43
2023-03-08T21:32:29.561Z,3.97
2023-03-08T21:34:57.154Z,5.15
2023-03-08T21:37:25.579Z,6.82
2023-03-08T21:39:52.907Z,5.80
2023-03-08T21:42:20.242Z,6.38
2023-03-08T21:44:47.655Z,5.45
2023-03-08T21:47:14.899Z,6.05
2023-03-08T21:49:42.100Z,5.47
2023-03-08T21:52:10.445Z,3.83
2023-03-08T21:54:37.716Z,5.05
2023-03-08T21:57:04.952Z,4.65
2023-03-08T21:59:32.369Z,5.05
2023-03-08T22:01:59.812Z,7.85
2023-03-08T22:04:28.231Z,6.68
2023-03-08T22:06:55.823Z,8.93
2023-03-08T22:09:23.431Z,9.30
2023-03-08T22:11:51.858Z,7.72
2023-03-08T22:14:19.165Z,8.68
2023-03-08T22:16:46.346Z,6.40
2023-03-08T22:19:13.551Z,5.72
2023-03-08T22:21:41.034Z,6.07
2023-03-08T22:24:08.397Z,6.40
2023-03-08T22:26:35.744Z,6.32
2023-03-08T22:29:03.031Z,7.00
2023-03-08T22:31:30.438Z,5.38
2023-03-08T22:33:58.360Z,7.55
2023-03-08T22:36:25.668Z,6.35
2023-03-08T22:38:53.270Z,5.00
2023-03-08T22:41:23.215Z,5.65
2023-03-08T22:43:51.514Z,6.07
2023-03-08T22:46:27.400Z,4.60
2023-03-08T22:48:56.603Z,7.75
2023-03-08T22:51:25.142Z,5.68
2023-03-08T22:53:52.323Z,6.80
2023-03-08T22:56:21.108Z,5.43
2023-03-08T22:58:49.058Z,5.57
2023-03-08T23:01:19.073Z,8.52
2023-03-08T23:03:49.282Z,6.28
2023-03-08T23:06:18.099Z,6.50
2023-03-08T23:08:46.185Z,4.70
2023-03-08T23:11:13.894Z,6.88
2023-03-08T23:13:41.963Z,5.93
2023-03-08T23:16:15.116Z,7.10
2023-03-08T23:18:43.314Z,6.55
2023-03-08T23:21:13.194Z,7.50
2023-03-08T23:23:40.756Z,7.53
2023-03-08T23:26:11.282Z,6.65
2023-03-08T23:28:38.840Z,6.18
2023-03-08T23:31:12.265Z,6.95
2023-03-08T23:33:40.088Z,5.97
2023-03-08T23:36:08.303Z,7.22
2023-03-08T23:38:35.780Z,6.72
2023-03-08T23:41:08.364Z,6.22
2023-03-08T23:43:36.976Z,8.82
2023-03-08T23:46:12.052Z,7.00
2023-03-08T23:48:39.713Z,6.80
2023-03-08T23:51:10.362Z,6.55
2023-03-08T23:53:37.945Z,8.00
2023-03-08T23:56:05.979Z,7.07
2023-03-08T23:58:33.701Z,6.18
